Time;durP1;ratioP1;P1;durP2;ratioP2;P2;SDS_P1;SDS_P2;PMS_P1;PMS_P2;Temp;Humidity;BMP_temperature;BMP_pressure;BME280_temperature;BME280_humidity;BME280_pressure;Samples;Min_cycle;Max_cycle;Signal;HPM_P1;HPM_P2
2022/10/03 00:02:35;;;;;;;;;;;20.70;99.90;;;;;;5153034;27;19903;-73
2022/10/03 00:05:22;;;;;;;;;;;20.60;99.90;;;;;;5154302;27;20315;-73
2022/10/03 00:07:51;;;;;;;;;;;20.70;99.90;;;;;;5154141;27;19952;-72
2022/10/03 00:10:35;;;;;;;;;;;20.70;99.90;;;;;;5154167;27;20300;-73
2022/10/03 00:13:06;;;;;;;;;;;20.70;99.90;;;;;;5153875;27;19910;-73
2022/10/03 00:15:41;;;;;;;;;;;20.70;99.90;;;;;;5153548;27;19923;-74
2022/10/03 00:21:29;;;;;;;;;;;20.70;99.90;;;;;;5153718;27;19947;-73
2022/10/03 00:24:00;;;;;;;;;;;20.70;99.90;;;;;;5153813;27;19922;-74
2022/10/03 00:26:32;;;;;;;;;;;20.70;99.90;;;;;;5151878;27;19998;-73
2022/10/03 00:29:16;;;;;;;;;;;20.70;99.90;;;;;;5153402;27;19917;-74
2022/10/03 00:31:54;;;;;;;;;;;20.70;99.90;;;;;;5153718;27;19904;-73
2022/10/03 00:34:20;;;;;;;;;;;20.70;99.90;;;;;;5153540;27;19975;-73
2022/10/03 00:36:55;;;;;;;;;;;20.60;99.90;;;;;;5153693;27;19998;-73
2022/10/03 00:39:31;;;;;;;;;;;20.70;99.90;;;;;;5153191;27;19903;-73
2022/10/03 00:42:15;;;;;;;;;;;20.70;99.90;;;;;;5153821;27;20353;-73
2022/10/03 00:44:56;;;;;;;;;;;20.70;99.90;;;;;;5153682;27;19907;-73
2022/10/03 00:47:25;;;;;;;;;;;20.70;99.90;;;;;;5153176;27;19947;-73
2022/10/03 00:49:57;;;;;;;;;;;20.70;99.90;;;;;;5153035;27;20369;-73
2022/10/03 00:52:26;;;;;;;;;;;20.70;99.90;;;;;;5153552;27;19903;-73
2022/10/03 00:55:03;;;;;;;;;;;20.50;99.90;;;;;;5151477;27;19958;-73
2022/10/03 00:57:34;;;;;;;;;;;20.40;99.90;;;;;;5152549;27;20407;-73
2022/10/03 01:00:15;;;;;;;;;;;20.30;99.90;;;;;;5152893;27;19903;-74
2022/10/03 01:02:50;;;;;;;;;;;20.20;99.90;;;;;;5151413;27;19907;-73
2022/10/03 01:05:35;;;;;;;;;;;20.30;99.90;;;;;;5151458;27;19924;-74
2022/10/03 01:08:19;;;;;;;;;;;20.30;99.90;;;;;;5152823;27;19907;-73
2022/10/03 01:11:04;;;;;;;;;;;20.30;99.90;;;;;;5153131;27;19909;-73
2022/10/03 01:13:33;;;;;;;;;;;20.40;99.90;;;;;;5152835;27;19903;-74
2022/10/03 01:16:18;;;;;;;;;;;20.40;99.90;;;;;;5152742;27;19915;-73
2022/10/03 01:18:54;;;;;;;;;;;20.40;99.90;;;;;;5153294;27;19903;-73
2022/10/03 01:21:44;;;;;;;;;;;20.40;99.90;;;;;;5152712;27;20315;-74
2022/10/03 01:24:16;;;;;;;;;;;20.40;99.90;;;;;;5151796;27;19903;-72
2022/10/03 01:26:53;;;;;;;;;;;20.40;99.90;;;;;;5152801;27;19909;-73
2022/10/03 01:32:28;;;;;;;;;;;20.60;99.90;;;;;;5153144;27;19910;-75
2022/10/03 01:34:59;;;;;;;;;;;20.50;99.90;;;;;;5152691;27;19910;-74
2022/10/03 01:37:28;;;;;;;;;;;20.50;99.90;;;;;;5151492;27;20268;-74
2022/10/03 01:40:06;;;;;;;;;;;20.50;99.90;;;;;;5151315;27;20274;-74
2022/10/03 01:42:44;;;;;;;;;;;20.50;99.90;;;;;;5153064;27;19994;-74
2022/10/03 01:45:14;;;;;;;;;;;20.50;99.90;;;;;;5152697;27;19963;-73
2022/10/03 01:47:48;;;;;;;;;;;20.50;99.90;;;;;;5152577;27;19910;-74
2022/10/03 01:50:18;;;;;;;;;;;20.50;99.90;;;;;;5152914;27;20370;-74
2022/10/03 01:53:04;;;;;;;;;;;20.50;99.90;;;;;;5151044;27;19911;-74
2022/10/03 01:55:48;;;;;;;;;;;20.60;99.90;;;;;;5152290;27;19961;-73
2022/10/03 01:58:16;;;;;;;;;;;20.60;99.90;;;;;;5152534;27;19979;-74
2022/10/03 02:00:45;;;;;;;;;;;20.70;99.90;;;;;;5152782;27;19903;-74
2022/10/03 02:03:34;;;;;;;;;;;20.70;99.90;;;;;;5152567;27;20074;-75
2022/10/03 02:06:05;;;;;;;;;;;20.60;99.90;;;;;;5152690;27;19903;-74
2022/10/03 02:08:31;;;;;;;;;;;20.50;99.90;;;;;;5153998;27;20015;-74
2022/10/03 02:11:06;;;;;;;;;;;20.40;99.90;;;;;;5156685;27;20359;-75
2022/10/03 02:13:35;;;;;;;;;;;20.40;99.90;;;;;;5156307;27;19975;-74
2022/10/03 02:16:06;;;;;;;;;;;20.40;99.90;;;;;;5156093;27;19977;-74
2022/10/03 02:18:47;;;;;;;;;;;20.30;99.90;;;;;;5154804;27;20066;-73
2022/10/03 02:21:32;;;;;;;;;;;20.30;99.90;;;;;;5156209;27;19978;-74
2022/10/03 02:24:07;;;;;;;;;;;20.30;99.90;;;;;;5156428;27;19975;-74
2022/10/03 02:26:42;;;;;;;;;;;20.30;99.90;;;;;;5156070;27;19910;-73
2022/10/03 02:29:26;;;;;;;;;;;20.30;99.90;;;;;;5156208;27;19922;-74
2022/10/03 02:32:07;;;;;;;;;;;20.40;99.90;;;;;;5155870;27;19903;-75
2022/10/03 02:34:39;;;;;;;;;;;20.50;99.90;;;;;;5154753;27;19903;-74
2022/10/03 02:37:13;;;;;;;;;;;20.60;99.90;;;;;;5155851;27;20347;-73
2022/10/03 02:39:58;;;;;;;;;;;20.70;99.90;;;;;;5156277;27;19903;-73
2022/10/03 02:42:36;;;;;;;;;;;20.70;99.90;;;;;;5155970;27;19922;-73
2022/10/03 02:45:02;;;;;;;;;;;20.70;99.90;;;;;;5155917;27;20315;-73
2022/10/03 02:47:36;;;;;;;;;;;20.60;99.90;;;;;;5155764;27;20370;-73
2022/10/03 02:50:22;;;;;;;;;;;20.60;99.90;;;;;;5155881;27;19954;-73
2022/10/03 02:55:54;;;;;;;;;;;20.60;99.90;;;;;;5155290;27;20246;-73
2022/10/03 02:58:42;;;;;;;;;;;20.50;99.90;;;;;;5155135;27;19979;-73
2022/10/03 03:01:20;;;;;;;;;;;20.50;99.90;;;;;;5155173;27;19993;-73
2022/10/03 03:04:24;;;;;;;;;;;20.50;99.90;;;;;;5154910;27;19920;-72
2022/10/03 03:07:08;;;;;;;;;;;20.50;99.90;;;;;;5091703;28;19904;-73
2022/10/03 03:10:04;;;;;;;;;;;20.50;99.90;;;;;;5091779;28;20020;-73
2022/10/03 03:12:49;;;;;;;;;;;20.60;99.90;;;;;;5092156;28;19908;-74
2022/10/03 03:15:35;;;;;;;;;;;20.60;99.90;;;;;;5074210;28;19908;-73
2022/10/03 03:18:24;;;;;;;;;;;20.60;99.90;;;;;;5074259;28;20375;-73
2022/10/03 03:20:59;;;;;;;;;;;20.60;99.90;;;;;;5082357;28;19911;-73
2022/10/03 03:23:37;;;;;;;;;;;20.70;99.90;;;;;;5074747;28;19904;-72
2022/10/03 03:26:21;;;;;;;;;;;20.70;99.90;;;;;;5092582;28;19904;-73
2022/10/03 03:28:50;;;;;;;;;;;20.50;99.90;;;;;;5092107;28;20007;-74
2022/10/03 03:31:18;;;;;;;;;;;20.40;99.90;;;;;;5092445;28;19904;-74
2022/10/03 03:34:06;;;;;;;;;;;20.40;99.90;;;;;;5092099;28;19904;-73
2022/10/03 03:36:32;;;;;;;;;;;20.30;99.90;;;;;;5095734;27;19904;-73
2022/10/03 03:39:16;;;;;;;;;;;20.30;99.90;;;;;;5154243;27;19907;-74
2022/10/03 03:44:53;;;;;;;;;;;20.30;99.90;;;;;;5155484;27;19955;-73
2022/10/03 03:47:29;;;;;;;;;;;20.40;99.90;;;;;;5155465;27;19932;-73
2022/10/03 03:50:15;;;;;;;;;;;20.30;99.90;;;;;;5155612;27;19934;-74
2022/10/03 03:52:59;;;;;;;;;;;20.30;99.90;;;;;;5154834;27;19956;-73
2022/10/03 03:55:31;;;;;;;;;;;20.40;99.90;;;;;;5155719;27;19990;-73
2022/10/03 03:58:07;;;;;;;;;;;20.30;99.90;;;;;;5155367;27;19968;-73
2022/10/03 04:00:39;;;;;;;;;;;20.40;99.90;;;;;;5155524;27;19903;-73
2022/10/03 04:03:23;;;;;;;;;;;20.30;99.90;;;;;;5154919;27;19903;-73
2022/10/03 04:05:52;;;;;;;;;;;20.30;99.90;;;;;;5155453;27;19910;-72
2022/10/03 04:08:46;;;;;;;;;;;20.40;99.90;;;;;;5155654;27;20332;-73
2022/10/03 04:11:36;;;;;;;;;;;20.40;99.90;;;;;;5155258;27;19914;-73
2022/10/03 04:14:20;;;;;;;;;;;20.40;99.90;;;;;;5155143;27;19955;-73
2022/10/03 04:20:12;;;;;;;;;;;20.30;99.90;;;;;;5092309;28;19930;-73
2022/10/03 04:22:50;;;;;;;;;;;20.30;99.90;;;;;;5153580;27;19965;-73
2022/10/03 04:25:17;;;;;;;;;;;20.30;99.90;;;;;;5155711;27;20273;-73
2022/10/03 04:27:45;;;;;;;;;;;20.30;99.90;;;;;;5156314;27;20375;-73
2022/10/03 04:30:30;;;;;;;;;;;20.30;99.90;;;;;;5155979;27;19911;-73
2022/10/03 04:33:18;;;;;;;;;;;20.40;99.90;;;;;;5155244;27;19971;-73
2022/10/03 04:36:13;;;;;;;;;;;20.40;99.90;;;;;;5126057;27;19997;-73
2022/10/03 04:38:59;;;;;;;;;;;20.30;99.90;;;;;;5155805;27;19906;-73
2022/10/03 04:41:43;;;;;;;;;;;20.30;99.90;;;;;;5155108;27;19994;-74
2022/10/03 04:44:29;;;;;;;;;;;20.30;99.90;;;;;;5155535;27;19907;-73
2022/10/03 04:46:57;;;;;;;;;;;20.30;99.90;;;;;;5155480;27;19987;-73
2022/10/03 04:49:31;;;;;;;;;;;20.30;99.90;;;;;;5154044;27;20401;-73
2022/10/03 04:51:59;;;;;;;;;;;20.40;99.90;;;;;;5155193;27;20426;-73
2022/10/03 04:54:42;;;;;;;;;;;20.30;99.90;;;;;;5155224;27;19903;-73
2022/10/03 04:57:14;;;;;;;;;;;20.30;99.90;;;;;;5153555;27;19903;-73
2022/10/03 04:59:49;;;;;;;;;;;20.40;99.90;;;;;;5155535;27;19991;-73
2022/10/03 05:02:41;;;;;;;;;;;20.40;99.90;;;;;;5154712;27;20373;-72
2022/10/03 05:05:13;;;;;;;;;;;20.40;99.90;;;;;;5130936;27;19903;-73
2022/10/03 05:08:03;;;;;;;;;;;20.40;99.90;;;;;;5153554;27;19953;-73
2022/10/03 05:10:29;;;;;;;;;;;20.40;99.90;;;;;;5146799;27;19946;-73
2022/10/03 05:13:04;;;;;;;;;;;20.30;99.90;;;;;;5154772;27;19937;-73
2022/10/03 05:15:39;;;;;;;;;;;20.30;99.90;;;;;;5154466;27;20001;-74
2022/10/03 05:18:24;;;;;;;;;;;20.40;99.90;;;;;;5155201;27;19903;-73
2022/10/03 05:20:50;;;;;;;;;;;20.40;99.90;;;;;;5154661;27;19903;-73
2022/10/03 05:23:43;;;;;;;;;;;20.40;99.90;;;;;;5154486;27;19994;-73
2022/10/03 05:26:22;;;;;;;;;;;20.40;99.90;;;;;;5154571;27;19903;-72
2022/10/03 05:28:53;;;;;;;;;;;20.40;99.90;;;;;;5153432;27;19922;-72
2022/10/03 05:31:33;;;;;;;;;;;20.50;99.90;;;;;;5153659;27;20328;-72
2022/10/03 05:34:00;;;;;;;;;;;20.50;99.90;;;;;;5152283;27;20418;-73
2022/10/03 05:36:28;;;;;;;;;;;20.60;99.90;;;;;;5152108;27;19954;-73
2022/10/03 05:39:00;;;;;;;;;;;20.90;99.90;;;;;;5154117;27;19938;-75
2022/10/03 05:41:36;;;;;;;;;;;22.00;99.90;;;;;;5153385;27;20264;-73
2022/10/03 05:44:15;;;;;;;;;;;23.40;99.90;;;;;;5154795;27;19958;-73
2022/10/03 05:46:54;;;;;;;;;;;24.40;99.90;;;;;;5157310;27;19903;-74
2022/10/03 05:49:29;;;;;;;;;;;25.70;99.90;;;;;;5158146;27;19922;-73
2022/10/03 05:51:57;;;;;;;;;;;26.60;99.90;;;;;;5157300;27;19961;-73
2022/10/03 05:54:26;;;;;;;;;;;27.60;99.90;;;;;;5156668;27;19907;-75
2022/10/03 05:57:06;;;;;;;;;;;28.80;99.90;;;;;;5157126;27;19943;-74
2022/10/03 05:59:49;;;;;;;;;;;30.20;99.90;;;;;;5156838;27;20394;-74
2022/10/03 06:02:15;;;;;;;;;;;31.30;99.90;;;;;;5156253;27;19903;-73
2022/10/03 06:04:52;;;;;;;;;;;31.60;99.90;;;;;;5155347;27;20005;-74
2022/10/03 06:07:30;;;;;;;;;;;32.70;99.90;;;;;;5156545;27;19907;-74
2022/10/03 06:10:14;;;;;;;;;;;32.90;99.30;;;;;;5156302;27;20275;-73
2022/10/03 06:12:41;;;;;;;;;;;32.40;99.80;;;;;;5156701;27;19903;-74
2022/10/03 06:15:45;;;;;;;;;;;32.20;99.90;;;;;;5154814;27;20022;-73
2022/10/03 06:18:20;;;;;;;;;;;32.80;99.90;;;;;;5093819;28;19980;-74
2022/10/03 06:21:01;;;;;;;;;;;34.10;98.60;;;;;;5093563;28;19904;-74
2022/10/03 06:23:39;;;;;;;;;;;33.80;98.50;;;;;;5076675;28;20003;-74
2022/10/03 06:26:05;;;;;;;;;;;34.30;98.00;;;;;;5094151;28;19911;-74
2022/10/03 06:28:41;;;;;;;;;;;34.50;98.00;;;;;;5093427;28;20371;-73
2022/10/03 06:31:19;;;;;;;;;;;34.70;97.90;;;;;;5093563;28;19977;-74
2022/10/03 06:34:03;;;;;;;;;;;34.20;98.00;;;;;;5094113;28;19904;-74
2022/10/03 06:36:54;;;;;;;;;;;33.70;98.90;;;;;;5093632;28;20030;-74
2022/10/03 06:39:38;;;;;;;;;;;33.30;99.90;;;;;;5076183;28;19904;-73
2022/10/03 06:42:06;;;;;;;;;;;33.20;99.80;;;;;;5093224;28;19904;-73
2022/10/03 06:44:55;;;;;;;;;;;34.30;99.60;;;;;;5093276;28;19976;-74
2022/10/03 06:47:30;;;;;;;;;;;34.50;98.70;;;;;;5092987;28;20011;-73
2022/10/03 06:50:02;;;;;;;;;;;33.60;99.10;;;;;;5151018;27;20359;-73
2022/10/03 06:52:44;;;;;;;;;;;33.50;99.00;;;;;;5157119;27;19903;-73
2022/10/03 06:55:22;;;;;;;;;;;32.30;99.70;;;;;;5155759;27;19939;-73
2022/10/03 06:58:07;;;;;;;;;;;32.20;99.80;;;;;;5157016;27;20192;-74
2022/10/03 07:00:44;;;;;;;;;;;32.70;99.50;;;;;;5155233;27;19903;-74
2022/10/03 07:03:24;;;;;;;;;;;32.60;99.20;;;;;;5156545;27;19903;-73
2022/10/03 07:06:09;;;;;;;;;;;33.60;98.60;;;;;;5156738;27;19903;-75
2022/10/03 07:09:01;;;;;;;;;;;33.90;98.50;;;;;;5155061;27;20324;-75
2022/10/03 07:11:33;;;;;;;;;;;34.90;98.10;;;;;;5156603;27;19907;-74
2022/10/03 07:14:09;;;;;;;;;;;36.10;96.90;;;;;;5156665;27;19914;-75
2022/10/03 07:16:49;;;;;;;;;;;37.40;96.00;;;;;;5156576;27;19926;-73
2022/10/03 07:19:15;;;;;;;;;;;38.20;95.00;;;;;;5156514;27;20306;-74
2022/10/03 07:22:00;;;;;;;;;;;38.70;94.80;;;;;;5155549;27;20363;-73
2022/10/03 07:24:26;;;;;;;;;;;38.00;94.50;;;;;;5156849;27;19986;-74
2022/10/03 07:27:01;;;;;;;;;;;37.60;95.20;;;;;;5156056;27;19983;-74
2022/10/03 07:29:53;;;;;;;;;;;36.70;95.80;;;;;;5156255;27;19911;-74
2022/10/03 07:32:35;;;;;;;;;;;35.40;97.20;;;;;;5131724;27;19938;-73
2022/10/03 07:35:20;;;;;;;;;;;34.50;98.30;;;;;;5154481;27;19903;-74
2022/10/03 07:41:05;;;;;;;;;;;33.00;99.60;;;;;;5156181;27;19962;-74
2022/10/03 07:43:43;;;;;;;;;;;32.40;99.90;;;;;;5091868;28;19928;-74
2022/10/03 07:46:21;;;;;;;;;;;31.30;99.90;;;;;;5092317;28;19955;-74
2022/10/03 07:48:47;;;;;;;;;;;31.00;99.90;;;;;;5092134;28;19927;-73
2022/10/03 07:51:16;;;;;;;;;;;30.80;99.90;;;;;;5090706;28;19994;-74
2022/10/03 07:53:48;;;;;;;;;;;30.80;99.90;;;;;;5090243;28;19904;-74
2022/10/03 07:56:16;;;;;;;;;;;30.20;99.90;;;;;;5090548;28;20033;-75
2022/10/03 07:58:54;;;;;;;;;;;29.00;99.90;;;;;;5090768;28;19904;-74
2022/10/03 08:01:38;;;;;;;;;;;28.30;99.90;;;;;;5073661;28;19990;-74
2022/10/03 08:04:04;;;;;;;;;;;27.50;99.90;;;;;;5073436;28;19908;-75
2022/10/03 08:06:44;;;;;;;;;;;27.60;99.90;;;;;;5089536;28;19908;-75
2022/10/03 08:09:10;;;;;;;;;;;27.90;99.90;;;;;;5090476;28;20027;-76
2022/10/03 08:11:45;;;;;;;;;;;28.20;99.90;;;;;;5090062;28;20364;-74
2022/10/03 08:14:29;;;;;;;;;;;28.40;99.90;;;;;;5089760;28;19965;-74
2022/10/03 08:17:01;;;;;;;;;;;28.70;99.90;;;;;;5090392;28;20012;-74
2022/10/03 08:19:59;;;;;;;;;;;29.00;99.90;;;;;;5105874;28;19922;-74
2022/10/03 08:22:25;;;;;;;;;;;29.20;99.90;;;;;;5112726;28;19903;-75
2022/10/03 08:25:05;;;;;;;;;;;28.90;99.90;;;;;;5113546;28;19919;-74
2022/10/03 08:27:35;;;;;;;;;;;29.20;99.90;;;;;;5113769;28;19920;-75
2022/10/03 08:30:08;;;;;;;;;;;29.50;99.90;;;;;;5113664;28;20278;-74
2022/10/03 08:32:52;;;;;;;;;;;29.60;99.90;;;;;;5113935;28;19910;-74
2022/10/03 08:35:27;;;;;;;;;;;29.70;99.90;;;;;;5113718;28;19915;-74
2022/10/03 08:38:32;;;;;;;;;;;29.60;99.90;;;;;;5112034;28;20275;-74
2022/10/03 08:41:10;;;;;;;;;;;29.60;99.90;;;;;;5111920;28;19903;-75
2022/10/03 08:43:44;;;;;;;;;;;29.40;99.90;;;;;;5111246;28;19986;-74
2022/10/03 08:46:29;;;;;;;;;;;29.00;99.90;;;;;;5094935;28;19939;-74
2022/10/03 08:49:09;;;;;;;;;;;29.20;99.90;;;;;;5111493;28;20002;-74
2022/10/03 08:51:53;;;;;;;;;;;29.30;99.90;;;;;;5111890;28;19907;-74
2022/10/03 08:54:19;;;;;;;;;;;29.40;99.90;;;;;;5094118;28;20385;-74
2022/10/03 08:56:58;;;;;;;;;;;29.50;99.90;;;;;;5111146;28;19903;-74
2022/10/03 08:59:26;;;;;;;;;;;29.50;99.90;;;;;;5111699;28;19947;-75
2022/10/03 09:02:10;;;;;;;;;;;29.40;99.90;;;;;;5111136;28;20375;-74
2022/10/03 09:04:36;;;;;;;;;;;29.00;99.90;;;;;;5094114;28;19990;-74
2022/10/03 09:07:02;;;;;;;;;;;29.00;99.90;;;;;;5111552;28;20422;-74
2022/10/03 09:09:46;;;;;;;;;;;29.10;99.90;;;;;;5111239;28;19965;-74
2022/10/03 09:12:24;;;;;;;;;;;29.10;99.90;;;;;;5105743;28;19910;-75
2022/10/03 09:14:52;;;;;;;;;;;29.30;99.90;;;;;;5116876;27;19904;-74
2022/10/03 09:17:18;;;;;;;;;;;29.30;99.90;;;;;;5154199;27;20294;-74
2022/10/03 09:19:55;;;;;;;;;;;29.30;99.90;;;;;;5154339;27;19903;-75
2022/10/03 09:22:41;;;;;;;;;;;29.40;99.90;;;;;;5154667;27;19926;-74
2022/10/03 09:25:06;;;;;;;;;;;29.10;99.90;;;;;;5154529;27;19903;-74
2022/10/03 09:27:41;;;;;;;;;;;29.10;99.90;;;;;;5154859;27;19909;-74
2022/10/03 09:30:16;;;;;;;;;;;29.10;99.90;;;;;;5152784;27;19911;-75
2022/10/03 09:32:42;;;;;;;;;;;29.20;99.90;;;;;;5153925;27;19934;-74
2022/10/03 09:35:26;;;;;;;;;;;28.90;99.90;;;;;;5154372;27;19903;-73
2022/10/03 09:38:11;;;;;;;;;;;28.60;99.90;;;;;;5152554;27;20392;-74
2022/10/03 09:40:42;;;;;;;;;;;28.60;99.90;;;;;;5153999;27;19903;-75
2022/10/03 09:43:27;;;;;;;;;;;28.70;99.90;;;;;;5154399;27;20306;-75
2022/10/03 09:46:11;;;;;;;;;;;28.70;99.90;;;;;;5154030;27;20310;-74
2022/10/03 09:48:37;;;;;;;;;;;28.70;99.90;;;;;;5153955;27;20002;-74
2022/10/03 09:51:20;;;;;;;;;;;29.00;99.90;;;;;;5153778;27;20316;-76
2022/10/03 09:54:07;;;;;;;;;;;29.00;99.90;;;;;;5153975;27;19921;-74
2022/10/03 09:56:43;;;;;;;;;;;29.10;99.90;;;;;;5154192;27;19903;-73
2022/10/03 09:59:23;;;;;;;;;;;29.20;99.90;;;;;;5154034;27;19903;-73
2022/10/03 10:02:12;;;;;;;;;;;29.10;99.90;;;;;;5154135;27;19907;-74
2022/10/03 10:04:52;;;;;;;;;;;29.10;99.90;;;;;;5151474;27;19903;-74
2022/10/03 10:07:29;;;;;;;;;;;29.00;99.90;;;;;;5154132;27;20339;-74
2022/10/03 10:10:16;;;;;;;;;;;29.00;99.90;;;;;;5154046;27;20319;-75
2022/10/03 10:12:58;;;;;;;;;;;28.90;99.90;;;;;;5153639;27;19903;-75
2022/10/03 10:15:43;;;;;;;;;;;29.10;99.90;;;;;;5153348;27;19915;-74
2022/10/03 10:18:27;;;;;;;;;;;29.20;99.90;;;;;;5153573;27;19942;-75
2022/10/03 10:21:19;;;;;;;;;;;29.10;99.90;;;;;;5153855;27;19954;-74
2022/10/03 10:23:57;;;;;;;;;;;29.10;99.90;;;;;;5154060;27;20018;-74
2022/10/03 10:26:49;;;;;;;;;;;28.80;99.90;;;;;;5153608;27;19903;-74
2022/10/03 10:29:39;;;;;;;;;;;29.00;99.90;;;;;;5155027;27;20283;-75
2022/10/03 10:32:27;;;;;;;;;;;29.30;99.90;;;;;;5157210;27;19903;-74
2022/10/03 10:34:59;;;;;;;;;;;29.40;99.90;;;;;;5157496;27;19903;-73
2022/10/03 10:37:43;;;;;;;;;;;29.00;99.90;;;;;;5157293;27;19934;-74
2022/10/03 10:40:09;;;;;;;;;;;29.20;99.90;;;;;;5157761;27;19903;-74
2022/10/03 10:42:53;;;;;;;;;;;29.10;99.90;;;;;;5157303;27;19910;-75
2022/10/03 10:45:25;;;;;;;;;;;29.10;99.90;;;;;;5157168;27;19995;-75
2022/10/03 10:47:50;;;;;;;;;;;29.00;99.90;;;;;;5156869;27;19903;-75
2022/10/03 10:50:19;;;;;;;;;;;29.00;99.90;;;;;;5155276;27;20386;-74
2022/10/03 10:52:51;;;;;;;;;;;29.20;99.90;;;;;;5157265;27;20375;-74
2022/10/03 10:55:32;;;;;;;;;;;29.30;99.90;;;;;;5156280;27;20043;-74
2022/10/03 10:58:16;;;;;;;;;;;29.40;99.90;;;;;;5156910;27;19947;-74
2022/10/03 11:01:00;;;;;;;;;;;29.50;99.90;;;;;;5156675;27;19989;-74
2022/10/03 11:03:58;;;;;;;;;;;29.50;99.90;;;;;;5156211;27;20047;-73
2022/10/03 11:06:41;;;;;;;;;;;29.40;99.90;;;;;;5156208;27;19903;-74
2022/10/03 11:09:27;;;;;;;;;;;29.30;99.90;;;;;;5156101;27;19946;-75
2022/10/03 11:12:02;;;;;;;;;;;29.20;99.90;;;;;;5144822;27;19910;-73
2022/10/03 11:14:47;;;;;;;;;;;29.10;99.90;;;;;;5154213;27;19903;-74
2022/10/03 11:17:30;;;;;;;;;;;29.30;99.90;;;;;;5156751;27;19922;-74
2022/10/03 11:19:56;;;;;;;;;;;29.50;99.90;;;;;;5156200;27;19903;-74
2022/10/03 11:22:37;;;;;;;;;;;29.70;99.90;;;;;;5156171;27;19910;-73
2022/10/03 11:25:21;;;;;;;;;;;29.80;99.90;;;;;;5155208;27;19903;-74
2022/10/03 11:28:25;;;;;;;;;;;29.70;99.90;;;;;;5155930;27;19906;-75
2022/10/03 11:31:13;;;;;;;;;;;29.80;99.90;;;;;;5092160;28;19919;-74
2022/10/03 11:33:57;;;;;;;;;;;29.50;99.90;;;;;;5153700;27;20363;-73
2022/10/03 11:36:42;;;;;;;;;;;29.40;99.90;;;;;;5156257;27;19910;-73
2022/10/03 11:39:14;;;;;;;;;;;29.40;99.90;;;;;;5156174;27;20423;-73
2022/10/03 11:41:52;;;;;;;;;;;29.40;99.90;;;;;;5155651;27;19907;-72
2022/10/03 11:44:20;;;;;;;;;;;29.60;99.90;;;;;;5156449;27;19903;-73
2022/10/03 11:46:56;;;;;;;;;;;29.70;99.90;;;;;;5156410;27;20222;-75
2022/10/03 11:49:41;;;;;;;;;;;29.50;99.90;;;;;;5155828;27;20050;-73
2022/10/03 11:52:26;;;;;;;;;;;29.50;99.90;;;;;;5155862;27;19903;-75
2022/10/03 11:55:26;;;;;;;;;;;29.00;99.90;;;;;;5153928;27;19907;-75
2022/10/03 11:58:07;;;;;;;;;;;29.20;99.90;;;;;;5155549;27;20259;-74
2022/10/03 12:00:35;;;;;;;;;;;29.20;99.90;;;;;;5155618;27;19998;-73
2022/10/03 12:03:19;;;;;;;;;;;29.10;99.90;;;;;;5154915;27;20358;-74
2022/10/03 12:05:48;;;;;;;;;;;29.20;99.90;;;;;;5155400;27;19903;-74
2022/10/03 12:11:20;;;;;;;;;;;28.60;99.90;;;;;;5155415;27;19914;-74
2022/10/03 12:13:46;;;;;;;;;;;28.50;99.90;;;;;;5155439;27;20002;-74
2022/10/03 12:16:36;;;;;;;;;;;28.50;99.90;;;;;;5155173;27;19960;-74
2022/10/03 12:19:10;;;;;;;;;;;28.30;99.90;;;;;;5125284;27;19922;-74
2022/10/03 12:21:52;;;;;;;;;;;27.90;99.90;;;;;;5155623;27;19926;-74
2022/10/03 12:24:26;;;;;;;;;;;28.20;99.90;;;;;;5155727;27;20381;-74
2022/10/03 12:26:56;;;;;;;;;;;28.40;99.90;;;;;;5156221;27;19907;-74
2022/10/03 12:29:24;;;;;;;;;;;28.60;99.90;;;;;;5155284;27;19936;-75
2022/10/03 12:31:49;;;;;;;;;;;28.60;99.90;;;;;;5156175;27;20359;-74
2022/10/03 12:34:33;;;;;;;;;;;28.70;99.90;;;;;;5155625;27;19942;-74
2022/10/03 12:37:18;;;;;;;;;;;28.90;99.90;;;;;;5155781;27;19914;-74
2022/10/03 12:39:47;;;;;;;;;;;29.10;99.90;;;;;;5155150;27;19903;-73
2022/10/03 12:42:13;;;;;;;;;;;29.20;99.90;;;;;;5155547;27;20304;-73
2022/10/03 12:44:51;;;;;;;;;;;29.40;99.90;;;;;;5155082;27;19907;-73
2022/10/03 12:47:32;;;;;;;;;;;29.40;99.90;;;;;;5154956;27;19903;-74
2022/10/03 12:50:07;;;;;;;;;;;29.50;99.90;;;;;;5155032;27;19917;-73
2022/10/03 12:52:36;;;;;;;;;;;29.60;99.90;;;;;;5154608;27;20029;-74
2022/10/03 12:55:13;;;;;;;;;;;29.60;99.90;;;;;;5154535;27;20292;-73
2022/10/03 12:57:51;;;;;;;;;;;29.50;99.90;;;;;;5154852;27;19903;-74
2022/10/03 13:00:20;;;;;;;;;;;29.60;99.90;;;;;;5154619;27;19929;-75
2022/10/03 13:02:49;;;;;;;;;;;29.60;99.90;;;;;;5154415;27;19907;-75
2022/10/03 13:05:28;;;;;;;;;;;29.60;99.90;;;;;;5154699;27;19903;-75
2022/10/03 13:08:02;;;;;;;;;;;29.50;99.90;;;;;;5154889;27;20423;-74
2022/10/03 13:11:06;;;;;;;;;;;29.40;99.90;;;;;;5154553;27;19918;-74
2022/10/03 13:13:38;;;;;;;;;;;29.40;99.90;;;;;;5090690;28;19904;-74
2022/10/03 13:16:18;;;;;;;;;;;29.40;99.90;;;;;;5090576;28;20010;-73
2022/10/03 13:18:47;;;;;;;;;;;29.40;99.90;;;;;;5091310;28;19911;-75
2022/10/03 13:21:18;;;;;;;;;;;29.40;99.90;;;;;;5091083;28;19951;-75
2022/10/03 13:23:59;;;;;;;;;;;29.40;99.90;;;;;;5091302;28;19908;-74
2022/10/03 13:26:38;;;;;;;;;;;29.50;99.90;;;;;;5091090;28;20352;-74
2022/10/03 13:29:12;;;;;;;;;;;29.50;99.90;;;;;;5073780;28;20350;-75
2022/10/03 13:31:48;;;;;;;;;;;29.50;99.90;;;;;;5091540;28;20301;-74
2022/10/03 13:34:17;;;;;;;;;;;29.50;99.90;;;;;;5091055;28;19999;-73
2022/10/03 13:37:03;;;;;;;;;;;29.60;99.90;;;;;;5074491;28;19908;-73
2022/10/03 13:39:43;;;;;;;;;;;29.60;99.90;;;;;;5090729;28;19915;-74
2022/10/03 13:42:09;;;;;;;;;;;29.60;99.90;;;;;;5090867;28;19923;-74
2022/10/03 13:44:35;;;;;;;;;;;29.60;99.90;;;;;;5104580;28;19911;-75
2022/10/03 13:47:19;;;;;;;;;;;29.70;99.90;;;;;;5113793;28;19903;-74
2022/10/03 13:49:53;;;;;;;;;;;29.60;99.90;;;;;;5113202;28;19918;-74
2022/10/03 13:52:36;;;;;;;;;;;29.60;99.90;;;;;;5113578;28;19935;-74
2022/10/03 13:55:13;;;;;;;;;;;29.50;99.90;;;;;;5114096;28;19904;-75
2022/10/03 13:57:58;;;;;;;;;;;29.30;99.90;;;;;;5112577;28;20010;-75
2022/10/03 14:00:25;;;;;;;;;;;29.30;99.90;;;;;;5113112;28;19950;-75
2022/10/03 14:02:54;;;;;;;;;;;29.40;99.90;;;;;;5112574;28;19903;-75
2022/10/03 14:05:35;;;;;;;;;;;29.40;99.90;;;;;;5116153;28;19908;-75
2022/10/03 14:08:19;;;;;;;;;;;29.60;99.90;;;;;;5117053;28;19961;-74
2022/10/03 14:10:48;;;;;;;;;;;29.50;99.90;;;;;;5115241;28;19911;-74
2022/10/03 14:13:32;;;;;;;;;;;29.60;99.90;;;;;;5116483;28;20382;-75
2022/10/03 14:16:19;;;;;;;;;;;29.70;99.90;;;;;;5139008;27;19922;-74
2022/10/03 14:18:52;;;;;;;;;;;29.70;99.90;;;;;;5125526;27;20040;-74
2022/10/03 14:21:31;;;;;;;;;;;29.90;99.80;;;;;;5156225;27;19903;-75
2022/10/03 14:23:56;;;;;;;;;;;30.00;98.60;;;;;;5157749;27;19903;-74
2022/10/03 14:26:30;;;;;;;;;;;30.10;97.90;;;;;;5157379;27;19903;-75
2022/10/03 14:29:04;;;;;;;;;;;29.80;97.80;;;;;;5157626;27;19939;-75
2022/10/03 14:31:42;;;;;;;;;;;29.80;97.30;;;;;;5157332;27;19907;-75
2022/10/03 14:34:14;;;;;;;;;;;29.70;97.00;;;;;;5157690;27;20216;-74
2022/10/03 14:36:51;;;;;;;;;;;29.80;96.70;;;;;;5155801;27;19911;-74
2022/10/03 14:39:27;;;;;;;;;;;29.80;96.60;;;;;;5157492;27;19903;-74
2022/10/03 14:42:05;;;;;;;;;;;30.00;96.50;;;;;;5157544;27;19907;-74
2022/10/03 14:44:39;;;;;;;;;;;30.00;96.50;;;;;;5157273;27;19906;-74
2022/10/03 14:47:10;;;;;;;;;;;29.80;96.30;;;;;;5156690;27;19903;-75
2022/10/03 14:49:37;;;;;;;;;;;29.70;96.40;;;;;;5155094;27;20345;-74
2022/10/03 14:52:10;;;;;;;;;;;29.60;96.60;;;;;;5156814;27;20307;-74
2022/10/03 14:54:38;;;;;;;;;;;29.60;96.40;;;;;;5156502;27;20005;-74
2022/10/03 14:57:22;;;;;;;;;;;29.60;97.60;;;;;;5156449;27;19946;-75
2022/10/03 14:59:53;;;;;;;;;;;29.50;99.50;;;;;;5156455;27;19910;-73
2022/10/03 15:02:25;;;;;;;;;;;29.60;99.90;;;;;;5156558;27;19926;-74
2022/10/03 15:04:53;;;;;;;;;;;29.60;99.90;;;;;;5156751;27;19937;-75
2022/10/03 15:07:32;;;;;;;;;;;29.70;99.90;;;;;;5155918;27;19903;-74
2022/10/03 15:09:59;;;;;;;;;;;29.50;99.90;;;;;;5155975;27;19911;-74
2022/10/03 15:12:27;;;;;;;;;;;29.20;99.90;;;;;;5154085;27;19934;-74
2022/10/03 15:15:16;;;;;;;;;;;29.00;99.90;;;;;;5155369;27;19959;-74
2022/10/03 15:17:44;;;;;;;;;;;28.80;99.90;;;;;;5146665;27;19930;-74
2022/10/03 15:20:10;;;;;;;;;;;28.70;99.90;;;;;;5155468;27;20369;-74
2022/10/03 15:26:20;;;;;;;;;;;28.60;99.90;;;;;;5155591;27;19945;-75
2022/10/03 15:28:47;;;;;;;;;;;28.60;99.90;;;;;;5156578;27;20282;-73
2022/10/03 15:31:18;;;;;;;;;;;28.50;99.90;;;;;;5156235;27;19994;-75
2022/10/03 15:36:56;;;;;;;;;;;28.40;99.90;;;;;;5155993;27;19914;-74
2022/10/03 15:39:27;;;;;;;;;;;28.30;99.90;;;;;;5156600;27;20250;-74
2022/10/03 15:41:55;;;;;;;;;;;28.10;99.90;;;;;;5156145;27;19914;-74
2022/10/03 15:44:32;;;;;;;;;;;28.00;99.90;;;;;;5156667;27;20061;-75